Time,TemperatureF,DewpointF,PressureIn,WindDirection,WindDirectionDegrees,WindSpeedMPH,WindSpeedGustMPH,Humidity,HourlyPrecipIn,Conditions,Clouds,dailyrainin,SoftwareType,DateUTC
2013-07-17 00:00:00,70.7,70.4,30.13,West,270,0.0,0.0,99,0.00,RA,,0.00,WeatherDisplay:10.37,2013-07-17 04:00:00,
2013-07-17 00:01:00,70.7,70.4,30.13,SW,225,0.0,0.0,99,0.00,RA,,0.00,WeatherDisplay:10.37,2013-07-17 04:01:00,
2013-07-17 00:03:00,70.7,70.4,30.13,SW,225,0.0,0.0,99,0.00,RA,,0.00,WeatherDisplay:10.37,2013-07-17 04:03:00,
2013-07-17 00:04:00,70.7,70.4,30.13,SW,225,0.0,0.0,99,0.00,RA,,0.00,WeatherDisplay:10.37,2013-07-17 04:04:00,
2013-07-17 00:08:00,70.7,70.4,30.13,WSW,248,0.0,0.0,99,0.00,RA,,0.00,WeatherDisplay:10.37,2013-07-17 04:08:00,
2013-07-17 00:13:00,70.7,70.4,30.13,SW,225,0.0,0.0,99,0.00,FEW,,0.00,WeatherDisplay:10.37,2013-07-17 04:13:00,
2013-07-17 00:18:00,70.7,70.4,30.13,WSW,248,0.0,0.0,99,0.00,FEW,,0.00,WeatherDisplay:10.37,2013-07-17 04:18:00,
2013-07-17 00:23:00,70.7,70.4,30.13,WSW,248,0.0,0.0,99,0.00,FEW,,0.00,WeatherDisplay:10.37,2013-07-17 04:23:00,
2013-07-17 00:28:00,70.7,70.4,30.13,SW,225,0.0,0.0,99,0.00,FEW,,0.00,WeatherDisplay:10.37,2013-07-17 04:28:00,
2013-07-17 00:33:00,70.7,70.4,30.13,West,270,0.0,0.0,99,0.00,CLR,,0.00,WeatherDisplay:10.37,2013-07-17 04:33:00,
2013-07-17 00:38:00,70.7,70.4,30.13,WSW,248,2.2,2.2,99,0.00,CLR,,0.00,WeatherDisplay:10.37,2013-07-17 04:38:00,
2013-07-17 00:43:00,70.5,70.2,30.13,WSW,248,2.7,2.7,99,0.00,CLR,,0.00,WeatherDisplay:10.37,2013-07-17 04:43:00,
2013-07-17 00:48:00,70.5,70.2,30.13,WSW,248,1.1,1.5,99,0.00,CLR,,0.00,WeatherDisplay:10.37,2013-07-17 04:48:00,
2013-07-17 00:53:00,70.5,70.2,30.13,SSW,202,0.0,0.0,99,0.00,CLR,,0.00,WeatherDisplay:10.37,2013-07-17 04:53:00,
2013-07-17 00:56:00,70.5,70.2,30.13,North,360,0.0,0.0,99,0.00,CLR,,0.00,WeatherDisplay:10.37,2013-07-17 04:56:00,
2013-07-17 00:59:00,70.5,70.2,30.12,East,90,0.0,0.0,99,0.00,CLR,,0.00,WeatherDisplay:10.37,2013-07-17 04:59:00,
2013-07-17 01:04:00,70.7,70.4,30.12,West,270,0.0,0.0,99,0.00,CLR,,0.00,WeatherDisplay:10.37,2013-07-17 05:04:00,
2013-07-17 01:09:00,70.5,70.2,30.11,SW,225,0.0,0.0,99,0.00,CLR,,0.00,WeatherDisplay:10.37,2013-07-17 05:09:00,
2013-07-17 01:14:00,70.5,70.2,30.11,SSW,202,0.0,0.0,99,0.00,CLR,,0.00,WeatherDisplay:10.37,2013-07-17 05:14:00,
2013-07-17 01:19:00,70.5,70.2,30.11,ESE,112,0.0,0.0,99,0.00,CLR,,0.00,WeatherDisplay:10.37,2013-07-17 05:19:00,
2013-07-17 01:24:00,70.5,70.2,30.11,ESE,112,0.0,0.0,99,0.00,CLR,,0.00,WeatherDisplay:10.37,2013-07-17 05:24:00,
2013-07-17 01:29:00,70.5,70.2,30.11,WSW,248,0.0,0.0,99,0.00,CLR,,0.00,WeatherDisplay:10.37,2013-07-17 05:29:00,
2013-07-17 01:34:00,70.5,70.2,30.11,WSW,248,0.0,0.0,99,0.00,FEW,,0.00,WeatherDisplay:10.37,2013-07-17 05:34:00,
2013-07-17 01:39:00,70.3,70.0,30.11,WSW,248,3.5,3.5,99,0.00,FEW,,0.00,WeatherDisplay:10.37,2013-07-17 05:39:00,
2013-07-17 01:44:00,70.2,69.9,30.11,SW,225,2.3,2.3,99,0.00,FEW,,0.00,WeatherDisplay:10.37,2013-07-17 05:44:00,
2013-07-17 01:49:00,70.2,69.9,30.11,SSW,202,0.0,0.0,99,0.00,FEW,,0.00,WeatherDisplay:10.37,2013-07-17 05:49:00,
2013-07-17 01:54:00,70.2,69.9,30.11,SSW,202,0.0,0.0,99,0.00,FEW,,0.00,WeatherDisplay:10.37,2013-07-17 05:54:00,
2013-07-17 01:59:00,70.3,70.0,30.11,WSW,248,0.0,0.0,99,0.00,FEW,,0.00,WeatherDisplay:10.37,2013-07-17 05:59:00,
2013-07-17 02:04:00,70.3,70.0,30.11,SW,225,0.0,0.0,99,0.00,FEW,,0.00,WeatherDisplay:10.37,2013-07-17 06:04:00,
2013-07-17 02:09:00,70.3,70.0,30.10,SW,225,0.0,0.0,99,0.00,FEW,,0.00,WeatherDisplay:10.37,2013-07-17 06:09:00,
2013-07-17 02:14:00,70.3,70.0,30.10,WSW,248,0.0,0.0,99,0.00,FEW,,0.00,WeatherDisplay:10.37,2013-07-17 06:14:00,
2013-07-17 02:19:00,70.3,70.0,30.10,WSW,248,0.0,0.0,99,0.00,FEW,,0.00,WeatherDisplay:10.37,2013-07-17 06:19:00,
2013-07-17 02:24:00,70.3,70.0,30.10,WSW,248,0.0,0.0,99,0.00,FEW,,0.00,WeatherDisplay:10.37,2013-07-17 06:24:00,
2013-07-17 02:29:00,70.3,70.0,30.10,WSW,248,0.0,0.0,99,0.00,FEW,,0.00,WeatherDisplay:10.37,2013-07-17 06:29:00,
2013-07-17 02:34:00,70.3,70.0,30.10,WSW,248,2.2,2.2,99,0.00,FEW,,0.00,WeatherDisplay:10.37,2013-07-17 06:34:00,
2013-07-17 02:39:00,70.3,70.0,30.10,SSW,202,0.0,0.0,99,0.00,FEW,,0.00,WeatherDisplay:10.37,2013-07-17 06:39:00,
2013-07-17 02:44:00,70.2,69.9,30.10,SSW,202,0.0,0.0,99,0.00,FEW,,0.00,WeatherDisplay:10.37,2013-07-17 06:44:00,
2013-07-17 02:49:00,70.2,69.9,30.10,SW,225,0.0,0.0,99,0.00,FEW,,0.00,WeatherDisplay:10.37,2013-07-17 06:49:00,
2013-07-17 02:54:00,70.2,69.9,30.10,WSW,248,0.0,0.0,99,0.00,FEW,,0.00,WeatherDisplay:10.37,2013-07-17 06:54:00,
2013-07-17 02:59:00,70.2,69.9,30.10,ENE,68,1.1,0.0,99,0.00,FEW,,0.00,WeatherDisplay:10.37,2013-07-17 06:59:00,
2013-07-17 03:04:00,70.2,69.9,30.10,ESE,112,0.0,0.0,99,0.00,FEW,,0.00,WeatherDisplay:10.37,2013-07-17 07:04:00,
2013-07-17 03:09:00,70.0,69.7,30.10,ESE,112,0.0,0.0,99,0.00,FEW,,0.00,WeatherDisplay:10.37,2013-07-17 07:09:00,
2013-07-17 03:14:00,70.0,69.7,30.10,ESE,112,0.0,0.0,99,0.00,FEW,,0.00,WeatherDisplay:10.37,2013-07-17 07:14:00,
2013-07-17 03:19:00,70.0,69.7,30.10,ESE,112,0.0,0.0,99,0.00,FEW,,0.00,WeatherDisplay:10.37,2013-07-17 07:19:00,
2013-07-17 03:24:00,70.0,69.7,30.10,South,180,0.0,0.0,99,0.00,FEW,,0.00,WeatherDisplay:10.37,2013-07-17 07:24:00,
2013-07-17 03:29:00,69.8,69.5,30.10,ESE,112,0.0,0.0,99,0.00,FEW,,0.00,WeatherDisplay:10.37,2013-07-17 07:29:00,
2013-07-17 03:34:00,69.8,69.5,30.10,SE,135,0.0,0.0,99,0.00,CLR,,0.00,WeatherDisplay:10.37,2013-07-17 07:34:00,
2013-07-17 03:39:00,69.8,69.5,30.10,SSW,202,0.0,0.0,99,0.00,CLR,,0.00,WeatherDisplay:10.37,2013-07-17 07:39:00,
2013-07-17 03:44:00,69.8,69.5,30.10,West,270,0.0,0.0,99,0.00,CLR,,0.00,WeatherDisplay:10.37,2013-07-17 07:44:00,
2013-07-17 03:49:00,69.8,69.5,30.10,WSW,248,0.0,0.0,99,0.00,CLR,,0.00,WeatherDisplay:10.37,2013-07-17 07:49:00,
2013-07-17 03:54:00,69.6,69.3,30.10,SW,225,0.0,0.0,99,0.00,CLR,,0.00,WeatherDisplay:10.37,2013-07-17 07:54:00,
2013-07-17 03:59:00,69.6,69.3,30.10,East,90,0.0,0.0,99,0.00,CLR,,0.00,WeatherDisplay:10.37,2013-07-17 07:59:00,
2013-07-17 04:04:00,69.6,69.3,30.10,WSW,248,0.0,0.0,99,0.00,CLR,,0.00,WeatherDisplay:10.37,2013-07-17 08:04:00,
2013-07-17 04:09:00,69.6,69.3,30.11,SW,225,0.0,0.0,99,0.00,CLR,,0.00,WeatherDisplay:10.37,2013-07-17 08:09:00,
2013-07-17 04:14:00,69.6,69.3,30.11,SSW,202,0.0,0.0,99,0.00,CLR,,0.00,WeatherDisplay:10.37,2013-07-17 08:14:00,
2013-07-17 04:19:00,69.6,69.3,30.11,SW,225,0.0,0.0,99,0.00,CLR,,0.00,WeatherDisplay:10.37,2013-07-17 08:19:00,
2013-07-17 04:25:00,69.6,69.3,30.11,SW,225,0.0,0.0,99,0.00,CLR,,0.00,WeatherDisplay:10.37,2013-07-17 08:25:00,
2013-07-17 04:30:00,69.6,69.3,30.11,WSW,240,0.0,0.0,99,0.00,CLR,,0.00,WeatherDisplay:10.37,2013-07-17 08:30:00,
2013-07-17 04:35:00,69.6,69.3,30.11,WSW,251,0.0,0.0,99,0.00,CLR,,0.00,WeatherDisplay:10.37,2013-07-17 08:35:00,
2013-07-17 04:40:00,69.4,69.1,30.11,WSW,250,0.0,0.0,99,0.00,CLR,,0.00,WeatherDisplay:10.37,2013-07-17 08:40:00,
2013-07-17 04:45:00,69.4,69.1,30.11,West,261,0.0,0.0,99,0.00,CLR,,0.00,WeatherDisplay:10.37,2013-07-17 08:45:00,
2013-07-17 04:50:00,69.4,69.1,30.12,WSW,245,0.0,0.0,99,0.00,CLR,,0.00,WeatherDisplay:10.37,2013-07-17 08:50:00,
2013-07-17 04:55:00,69.4,69.1,30.12,WSW,244,0.0,0.0,99,0.00,CLR,,0.00,WeatherDisplay:10.37,2013-07-17 08:55:00,
2013-07-17 05:00:00,69.6,69.3,30.12,WSW,252,2.0,3.0,99,0.00,CLR,,0.00,WeatherDisplay:10.37,2013-07-17 09:00:00,
2013-07-17 05:05:00,69.6,69.3,30.12,WSW,247,1.0,3.0,99,0.00,CLR,,0.00,WeatherDisplay:10.37,2013-07-17 09:05:00,
2013-07-17 05:10:00,69.6,69.3,30.12,WSW,241,0.0,0.0,99,0.00,CLR,,0.00,WeatherDisplay:10.37,2013-07-17 09:10:00,
2013-07-17 05:15:00,69.8,69.5,30.12,SW,235,0.0,0.0,99,0.00,CLR,,0.00,WeatherDisplay:10.37,2013-07-17 09:15:00,
2013-07-17 05:20:00,69.8,69.5,30.12,SW,236,0.0,0.0,99,0.00,CLR,,0.00,WeatherDisplay:10.37,2013-07-17 09:20:00,
2013-07-17 05:25:00,69.8,69.5,30.12,SW,234,0.0,0.0,99,0.00,CLR,,0.00,WeatherDisplay:10.37,2013-07-17 09:25:00,
2013-07-17 05:30:00,69.8,69.5,30.12,SW,228,0.0,0.0,99,0.00,CLR,,0.00,WeatherDisplay:10.37,2013-07-17 09:30:00,
2013-07-17 05:35:00,69.8,69.5,30.13,WSW,243,0.0,0.0,99,0.00,BKN,,0.00,WeatherDisplay:10.37,2013-07-17 09:35:00,
2013-07-17 05:40:00,70.0,69.7,30.13,WSW,248,0.0,0.0,99,0.00,BKN,,0.00,WeatherDisplay:10.37,2013-07-17 09:40:00,
2013-07-17 05:45:00,70.0,69.7,30.13,East,90,0.0,0.0,99,0.00,BKN,,0.00,WeatherDisplay:10.37,2013-07-17 09:45:00,
2013-07-17 05:50:00,70.2,69.9,30.12,SW,225,0.0,0.0,99,0.00,BKN,,0.00,WeatherDisplay:10.37,2013-07-17 09:50:00,
2013-07-17 05:55:00,70.3,70.0,30.12,ESE,112,0.0,0.0,99,0.00,BKN,,0.00,WeatherDisplay:10.37,2013-07-17 09:55:00,
2013-07-17 06:00:00,70.3,70.0,30.12,SSW,202,2.3,2.3,99,0.00,BKN,,0.00,WeatherDisplay:10.37,2013-07-17 10:00:00,
2013-07-17 06:05:00,70.3,70.0,30.12,SW,225,2.3,2.3,99,0.00,OVC,,0.00,WeatherDisplay:10.37,2013-07-17 10:05:00,
2013-07-17 06:10:00,70.5,70.2,30.13,West,270,1.1,0.0,99,0.00,OVC,,0.00,WeatherDisplay:10.37,2013-07-17 10:10:00,
2013-07-17 06:15:00,70.5,70.2,30.13,WSW,248,1.1,1.1,99,0.00,OVC,,0.00,WeatherDisplay:10.37,2013-07-17 10:15:00,
2013-07-17 06:20:00,70.7,70.4,30.13,SSE,158,0.0,0.0,99,0.00,OVC,,0.00,WeatherDisplay:10.37,2013-07-17 10:20:00,
2013-07-17 06:25:00,70.7,70.4,30.13,SE,135,0.0,0.0,99,0.00,OVC,,0.00,WeatherDisplay:10.37,2013-07-17 10:25:00,
2013-07-17 06:30:00,70.9,70.6,30.13,SSE,158,0.0,0.0,99,0.00,OVC,,0.00,WeatherDisplay:10.37,2013-07-17 10:30:00,
2013-07-17 06:35:00,70.9,70.6,30.13,ESE,112,0.0,0.0,99,0.00,OVC,,0.00,WeatherDisplay:10.37,2013-07-17 10:35:00,
2013-07-17 06:40:00,71.1,70.8,30.13,ESE,112,0.0,0.0,99,0.00,OVC,,0.00,WeatherDisplay:10.37,2013-07-17 10:40:00,
2013-07-17 06:45:00,71.1,70.8,30.13,East,90,0.0,0.0,99,0.00,OVC,,0.00,WeatherDisplay:10.37,2013-07-17 10:45:00,
2013-07-17 06:50:00,71.1,70.8,30.13,SW,225,0.0,0.0,99,0.00,OVC,,0.00,WeatherDisplay:10.37,2013-07-17 10:50:00,
2013-07-17 06:55:00,71.4,71.1,30.13,SSE,158,0.0,0.0,99,0.00,OVC,,0.00,WeatherDisplay:10.37,2013-07-17 10:55:00,
2013-07-17 07:00:00,71.6,71.3,30.14,SW,225,0.0,0.0,99,0.00,OVC,,0.00,WeatherDisplay:10.37,2013-07-17 11:00:00,
2013-07-17 07:05:00,71.6,71.3,30.14,SW,225,0.0,0.0,99,0.00,CLR,,0.00,WeatherDisplay:10.37,2013-07-17 11:05:00,
2013-07-17 07:10:00,71.6,71.3,30.14,WSW,248,0.0,0.0,99,0.00,CLR,,0.00,WeatherDisplay:10.37,2013-07-17 11:10:00,
2013-07-17 07:15:00,71.8,71.5,30.14,SW,225,1.1,1.1,99,0.00,CLR,,0.00,WeatherDisplay:10.37,2013-07-17 11:15:00,
2013-07-17 07:20:00,71.8,71.5,30.14,SSW,202,2.3,2.3,99,0.00,CLR,,0.00,WeatherDisplay:10.37,2013-07-17 11:20:00,
2013-07-17 07:25:00,71.8,71.5,30.14,SW,225,0.0,0.0,99,0.00,CLR,,0.00,WeatherDisplay:10.37,2013-07-17 11:25:00,
2013-07-17 07:30:00,72.1,71.8,30.14,WSW,248,1.1,1.3,99,0.00,CLR,,0.00,WeatherDisplay:10.37,2013-07-17 11:30:00,
2013-07-17 07:35:00,72.3,72.0,30.14,West,270,2.3,2.3,99,0.00,OVC,,0.00,WeatherDisplay:10.37,2013-07-17 11:35:00,
2013-07-17 07:40:00,72.3,72.0,30.14,SW,225,2.3,2.3,99,0.00,OVC,,0.00,WeatherDisplay:10.37,2013-07-17 11:40:00,
2013-07-17 07:45:00,72.7,72.4,30.15,SW,225,0.0,0.0,99,0.00,OVC,,0.00,WeatherDisplay:10.37,2013-07-17 11:45:00,
2013-07-17 07:50:00,72.7,72.4,30.15,SW,225,0.0,0.0,99,0.00,OVC,,0.00,WeatherDisplay:10.37,2013-07-17 11:50:00,
2013-07-17 07:55:00,72.9,72.6,30.15,SSW,202,0.0,0.0,99,0.00,OVC,,0.00,WeatherDisplay:10.37,2013-07-17 11:55:00,
2013-07-17 08:00:00,73.0,72.7,30.15,SW,225,0.0,0.0,99,0.00,OVC,,0.00,WeatherDisplay:10.37,2013-07-17 12:00:00,
2013-07-17 08:05:00,73.0,72.7,30.15,SW,225,2.7,2.7,99,0.00,CLR,,0.00,WeatherDisplay:10.37,2013-07-17 12:05:00,
2013-07-17 08:10:00,73.4,73.1,30.15,WSW,248,2.3,0.0,99,0.00,CLR,,0.00,WeatherDisplay:10.37,2013-07-17 12:10:00,
2013-07-17 08:15:00,73.8,73.5,30.15,SW,225,2.3,2.3,99,0.00,CLR,,0.00,WeatherDisplay:10.37,2013-07-17 12:15:00,
2013-07-17 08:20:00,74.1,73.8,30.15,WSW,248,2.3,2.3,99,0.00,CLR,,0.00,WeatherDisplay:10.37,2013-07-17 12:20:00,
2013-07-17 08:25:00,74.3,74.0,30.15,SSW,202,1.7,1.7,99,0.00,CLR,,0.00,WeatherDisplay:10.37,2013-07-17 12:25:00,
2013-07-17 08:30:00,74.3,74.0,30.15,WSW,248,2.3,2.5,99,0.00,CLR,,0.00,WeatherDisplay:10.37,2013-07-17 12:30:00,
2013-07-17 08:35:00,74.5,74.2,30.15,West,270,2.3,2.3,99,0.00,CLR,,0.00,WeatherDisplay:10.37,2013-07-17 12:35:00,
2013-07-17 08:40:00,74.5,74.2,30.15,WSW,248,3.5,3.5,99,0.00,CLR,,0.00,WeatherDisplay:10.37,2013-07-17 12:40:00,
2013-07-17 08:45:00,74.5,74.2,30.15,WSW,248,3.5,3.5,99,0.00,CLR,,0.00,WeatherDisplay:10.37,2013-07-17 12:45:00,
2013-07-17 08:50:00,74.5,74.2,30.15,SW,225,2.7,2.7,99,0.00,CLR,,0.00,WeatherDisplay:10.37,2013-07-17 12:50:00,
2013-07-17 08:55:00,74.8,74.5,30.15,West,270,2.7,2.7,99,0.00,CLR,,0.00,WeatherDisplay:10.37,2013-07-17 12:55:00,
2013-07-17 09:00:00,75.2,74.9,30.15,SSW,202,1.1,1.1,99,0.00,CLR,,0.00,WeatherDisplay:10.37,2013-07-17 13:00:00,
2013-07-17 09:05:00,75.7,75.4,30.15,SW,225,0.0,0.0,99,0.00,CLR,,0.00,WeatherDisplay:10.37,2013-07-17 13:05:00,
2013-07-17 09:10:00,76.1,75.8,30.15,West,270,3.7,3.7,99,0.00,CLR,,0.00,WeatherDisplay:10.37,2013-07-17 13:10:00,
2013-07-17 09:15:00,75.2,74.3,30.15,West,270,3.5,3.5,97,0.00,CLR,,0.00,WeatherDisplay:10.37,2013-07-17 13:15:00,
2013-07-17 09:20:00,75.2,74.3,30.15,West,270,2.7,2.7,97,0.00,CLR,,0.00,WeatherDisplay:10.37,2013-07-17 13:20:00,
2013-07-17 09:25:00,75.4,74.2,30.15,North,360,3.5,3.5,96,0.00,CLR,,0.00,WeatherDisplay:10.37,2013-07-17 13:25:00,
2013-07-17 09:30:00,75.6,74.4,30.15,East,90,3.5,3.5,96,0.00,CLR,,0.00,WeatherDisplay:10.37,2013-07-17 13:30:00,
2013-07-17 09:35:00,75.9,75.0,30.15,SSW,202,0.0,0.0,97,0.00,OVC,,0.00,WeatherDisplay:10.37,2013-07-17 13:35:00,
2013-07-17 09:40:00,76.8,75.9,30.15,SW,225,0.0,0.0,97,0.00,OVC,,0.00,WeatherDisplay:10.37,2013-07-17 13:40:00,
2013-07-17 09:45:00,77.2,76.0,30.15,ESE,112,0.0,0.0,96,0.00,OVC,,0.00,WeatherDisplay:10.37,2013-07-17 13:45:00,
2013-07-17 09:50:00,77.4,75.2,30.15,WSW,248,0.0,0.0,93,0.00,OVC,,0.00,WeatherDisplay:10.37,2013-07-17 13:50:00,
2013-07-17 09:55:00,77.7,75.8,30.15,South,180,0.0,0.0,94,0.00,OVC,,0.00,WeatherDisplay:10.37,2013-07-17 13:55:00,
2013-07-17 10:00:00,78.3,76.4,30.16,SW,225,0.0,0.0,94,0.00,OVC,,0.00,WeatherDisplay:10.37,2013-07-17 14:00:00,
2013-07-17 10:05:00,79.2,77.0,30.16,WSW,248,0.0,0.0,93,0.00,OVC,,0.00,WeatherDisplay:10.37,2013-07-17 14:05:00,
2013-07-17 10:10:00,79.3,76.8,30.15,SSW,202,0.0,0.0,92,0.00,OVC,,0.00,WeatherDisplay:10.37,2013-07-17 14:10:00,
2013-07-17 10:15:00,80.1,76.6,30.15,SSW,202,0.0,0.0,89,0.00,OVC,,0.00,WeatherDisplay:10.37,2013-07-17 14:15:00,
2013-07-17 10:20:00,78.8,74.9,30.15,ESE,112,0.0,0.0,88,0.00,OVC,,0.00,WeatherDisplay:10.37,2013-07-17 14:20:00,
2013-07-17 10:25:00,79.0,74.8,30.14,ESE,112,2.3,2.3,87,0.00,OVC,,0.00,WeatherDisplay:10.37,2013-07-17 14:25:00,
2013-07-17 10:30:00,81.9,76.2,30.14,South,180,1.1,1.1,83,0.00,OVC,,0.00,WeatherDisplay:10.37,2013-07-17 14:30:00,
2013-07-17 10:35:00,83.7,76.5,30.14,SSE,158,0.0,0.0,79,0.00,BKN,,0.00,WeatherDisplay:10.37,2013-07-17 14:35:00,
2013-07-17 10:40:00,81.7,75.7,30.14,SW,225,3.5,3.5,82,0.00,BKN,,0.00,WeatherDisplay:10.37,2013-07-17 14:40:00,
2013-07-17 10:45:00,86.0,77.1,30.14,South,180,5.8,5.8,75,0.00,BKN,,0.00,WeatherDisplay:10.37,2013-07-17 14:45:00,
2013-07-17 10:50:00,86.5,77.2,30.14,SSW,202,4.6,4.6,74,0.00,BKN,,0.00,WeatherDisplay:10.37,2013-07-17 14:50:00,
2013-07-17 10:55:00,85.6,76.4,30.14,South,180,2.3,2.3,74,0.00,BKN,,0.00,WeatherDisplay:10.37,2013-07-17 14:55:00,
2013-07-17 11:00:00,86.5,77.2,30.14,ESE,112,3.5,3.5,74,0.00,BKN,,0.00,WeatherDisplay:10.37,2013-07-17 15:00:00,
2013-07-17 11:05:00,86.0,77.5,30.14,West,270,3.5,3.5,76,0.00,FEW,,0.00,WeatherDisplay:10.37,2013-07-17 15:05:00,
2013-07-17 11:10:00,84.2,76.2,30.14,West,270,3.5,3.5,77,0.00,FEW,,0.00,WeatherDisplay:10.37,2013-07-17 15:10:00,
2013-07-17 11:15:00,85.5,76.7,30.14,SW,225,2.3,2.3,75,0.00,FEW,,0.00,WeatherDisplay:10.37,2013-07-17 15:15:00,
2013-07-17 11:20:00,87.8,77.2,30.14,SSE,158,2.3,2.3,71,0.00,FEW,,0.00,WeatherDisplay:10.37,2013-07-17 15:20:00,
2013-07-17 11:25:00,84.6,77.0,30.14,WSW,248,3.5,3.5,78,0.00,FEW,,0.00,WeatherDisplay:10.37,2013-07-17 15:25:00,
2013-07-17 11:30:00,85.6,77.6,30.14,SW,225,4.6,4.6,77,0.00,FEW,,0.00,WeatherDisplay:10.37,2013-07-17 15:30:00,
2013-07-17 11:35:00,83.1,75.5,30.13,WSW,248,4.6,4.6,78,0.00,FEW,,0.00,WeatherDisplay:10.37,2013-07-17 15:35:00,
2013-07-17 11:40:00,86.5,77.6,30.13,WNW,292,3.5,3.5,75,0.00,FEW,,0.00,WeatherDisplay:10.37,2013-07-17 15:40:00,
2013-07-17 11:45:00,89.2,77.7,30.13,South,180,4.6,4.6,69,0.00,FEW,,0.00,WeatherDisplay:10.37,2013-07-17 15:45:00,
2013-07-17 11:50:00,87.8,77.2,30.13,SSW,202,2.3,2.3,71,0.00,FEW,,0.00,WeatherDisplay:10.37,2013-07-17 15:50:00,
2013-07-17 11:55:00,87.8,77.2,30.13,West,270,4.6,4.6,71,0.00,FEW,,0.00,WeatherDisplay:10.37,2013-07-17 15:55:00,
2013-07-17 12:00:00,86.4,76.7,30.13,WSW,248,4.6,4.6,73,0.00,FEW,,0.00,WeatherDisplay:10.37,2013-07-17 16:00:00,
2013-07-17 12:05:00,85.6,76.4,30.13,SW,225,3.5,3.5,74,0.00,FEW,,0.00,WeatherDisplay:10.37,2013-07-17 16:05:00,
2013-07-17 12:10:00,90.1,78.6,30.13,SW,225,2.2,2.2,69,0.00,FEW,,0.00,WeatherDisplay:10.37,2013-07-17 16:10:00,
2013-07-17 12:15:00,88.9,77.4,30.13,SSE,158,2.3,2.3,69,0.00,FEW,,0.00,WeatherDisplay:10.37,2013-07-17 16:15:00,
2013-07-17 12:20:00,88.0,77.0,30.13,ESE,112,1.7,1.7,70,0.00,FEW,,0.00,WeatherDisplay:10.37,2013-07-17 16:20:00,
2013-07-17 12:25:00,84.9,76.1,30.12,WSW,248,4.6,4.6,75,0.00,FEW,,0.00,WeatherDisplay:10.37,2013-07-17 16:25:00,
2013-07-17 12:30:00,86.5,77.2,30.12,SW,225,4.6,4.6,74,0.00,FEW,,0.00,WeatherDisplay:10.37,2013-07-17 16:30:00,
2013-07-17 12:35:00,86.2,76.9,30.12,SSW,202,4.6,4.6,74,0.00,SCT,,0.00,WeatherDisplay:10.37,2013-07-17 16:35:00,
2013-07-17 12:36:00,86.7,77.0,30.12,WSW,248,4.6,4.6,73,0.00,SCT,,0.00,WeatherDisplay:10.37,2013-07-17 16:36:00,
2013-07-17 12:41:00,86.5,76.4,30.12,WSW,248,4.6,4.6,72,0.00,SCT,,0.00,WeatherDisplay:10.37,2013-07-17 16:41:00,
2013-07-17 12:46:00,86.9,77.2,30.11,SSW,202,1.1,1.1,73,0.00,SCT,,0.00,WeatherDisplay:10.37,2013-07-17 16:46:00,
2013-07-17 12:51:00,87.6,76.6,30.11,SSE,158,2.3,2.3,70,0.00,SCT,,0.00,WeatherDisplay:10.37,2013-07-17 16:51:00,
2013-07-17 12:56:00,89.4,77.4,30.11,South,180,0.0,0.0,68,0.00,SCT,,0.00,WeatherDisplay:10.37,2013-07-17 16:56:00,
2013-07-17 13:01:00,90.3,78.3,30.11,SW,225,4.6,4.6,68,0.00,SCT,,0.00,WeatherDisplay:10.37,2013-07-17 17:01:00,
2013-07-17 13:06:00,93.6,77.6,30.11,West,270,4.6,4.6,60,0.00,SCT,,0.00,WeatherDisplay:10.37,2013-07-17 17:06:00,
2013-07-17 13:11:00,87.8,75.9,30.10,West,270,3.5,3.5,68,0.00,SCT,,0.00,WeatherDisplay:10.37,2013-07-17 17:11:00,
2013-07-17 13:16:00,95.5,78.4,30.10,WSW,248,3.5,3.5,58,0.00,SCT,,0.00,WeatherDisplay:10.37,2013-07-17 17:16:00,
2013-07-17 13:21:00,94.5,78.5,30.10,NNW,338,1.1,1.1,60,0.00,SCT,,0.00,WeatherDisplay:10.37,2013-07-17 17:21:00,
2013-07-17 13:26:00,94.3,78.3,30.11,West,270,2.7,2.7,60,0.00,SCT,,0.00,WeatherDisplay:10.37,2013-07-17 17:26:00,
2013-07-17 13:31:00,90.5,77.1,30.11,SW,225,5.8,5.8,65,0.00,SCT,,0.00,WeatherDisplay:10.37,2013-07-17 17:31:00,
2013-07-17 13:36:00,91.2,77.8,30.10,SW,225,3.2,3.2,65,0.00,SCT,,0.00,WeatherDisplay:10.37,2013-07-17 17:36:00,
2013-07-17 13:41:00,92.1,77.7,30.10,West,270,3.5,3.5,63,0.00,SCT,,0.00,WeatherDisplay:10.37,2013-07-17 17:41:00,
2013-07-17 13:46:00,87.1,75.3,30.10,WSW,248,5.8,5.8,68,0.00,SCT,,0.00,WeatherDisplay:10.37,2013-07-17 17:46:00,
2013-07-17 13:51:00,89.2,76.8,30.10,NW,315,3.7,3.7,67,0.00,SCT,,0.00,WeatherDisplay:10.37,2013-07-17 17:51:00,
2013-07-17 13:56:00,89.1,76.7,30.10,WSW,248,3.7,3.7,67,0.00,SCT,,0.00,WeatherDisplay:10.37,2013-07-17 17:56:00,
2013-07-17 14:01:00,90.0,77.1,30.09,East,90,2.3,2.3,66,0.00,SCT,,0.00,WeatherDisplay:10.37,2013-07-17 18:01:00,
2013-07-17 14:06:00,90.5,77.1,30.09,South,180,3.5,3.5,65,0.00,SCT,,0.00,WeatherDisplay:10.37,2013-07-17 18:06:00,
2013-07-17 14:11:00,92.7,77.8,30.09,SSE,158,4.6,4.6,62,0.00,SCT,,0.00,WeatherDisplay:10.37,2013-07-17 18:11:00,
2013-07-17 14:16:00,92.7,76.8,30.09,SSE,158,5.8,5.8,60,0.00,SCT,,0.00,WeatherDisplay:10.37,2013-07-17 18:16:00,
2013-07-17 14:21:00,91.0,77.1,30.09,South,180,2.3,2.3,64,0.00,SCT,,0.00,WeatherDisplay:10.37,2013-07-17 18:21:00,
2013-07-17 14:26:00,89.8,76.9,30.09,SW,225,2.3,2.3,66,0.00,SCT,,0.00,WeatherDisplay:10.37,2013-07-17 18:26:00,
2013-07-17 14:31:00,95.9,78.7,30.09,West,270,4.2,4.2,58,0.00,SCT,,0.00,WeatherDisplay:10.37,2013-07-17 18:31:00,
2013-07-17 14:36:00,93.4,77.9,30.08,SW,225,4.6,4.6,61,0.00,SCT,,0.00,WeatherDisplay:10.37,2013-07-17 18:36:00,
2013-07-17 14:41:00,92.1,76.2,30.08,SW,225,5.8,5.8,60,0.00,SCT,,0.00,WeatherDisplay:10.37,2013-07-17 18:41:00,
2013-07-17 14:46:00,94.3,77.2,30.07,WSW,248,4.7,4.7,58,0.00,SCT,,0.00,WeatherDisplay:10.37,2013-07-17 18:46:00,
2013-07-17 14:51:00,95.2,77.6,30.07,East,90,5.8,5.8,57,0.00,SCT,,0.00,WeatherDisplay:10.37,2013-07-17 18:51:00,
2013-07-17 14:56:00,89.4,76.1,30.07,SW,225,2.3,2.3,65,0.00,SCT,,0.00,WeatherDisplay:10.37,2013-07-17 18:56:00,
2013-07-17 15:01:00,93.2,77.2,30.07,SW,225,3.7,3.7,60,0.00,SCT,,0.00,WeatherDisplay:10.37,2013-07-17 19:01:00,
2013-07-17 15:06:00,90.7,76.8,30.07,West,270,5.8,5.8,64,0.00,SCT,,0.00,WeatherDisplay:10.37,2013-07-17 19:06:00,
2013-07-17 15:11:00,90.3,75.5,30.06,SW,225,6.9,6.9,62,0.00,SCT,,0.00,WeatherDisplay:10.37,2013-07-17 19:11:00,
2013-07-17 15:16:00,91.6,76.2,30.06,SSE,158,3.5,3.5,61,0.00,SCT,,0.00,WeatherDisplay:10.37,2013-07-17 19:16:00,
2013-07-17 15:21:00,89.6,75.8,30.05,ESE,112,4.6,4.6,64,0.00,SCT,,0.00,WeatherDisplay:10.37,2013-07-17 19:21:00,
2013-07-17 15:26:00,89.8,75.5,30.05,WSW,248,4.6,4.6,63,0.00,SCT,,0.00,WeatherDisplay:10.37,2013-07-17 19:26:00,
2013-07-17 15:31:00,90.0,76.2,30.05,SW,225,6.9,6.9,64,0.00,SCT,,0.00,WeatherDisplay:10.37,2013-07-17 19:31:00,
2013-07-17 15:36:00,90.3,75.0,30.06,ESE,112,4.6,4.6,61,0.00,SCT,,0.00,WeatherDisplay:10.37,2013-07-17 19:36:00,
2013-07-17 15:41:00,89.8,75.5,30.06,SSE,158,1.1,0.0,63,0.00,SCT,,0.00,WeatherDisplay:10.37,2013-07-17 19:41:00,
2013-07-17 15:46:00,92.3,76.4,30.06,West,270,2.7,2.7,60,0.00,SCT,,0.00,WeatherDisplay:10.37,2013-07-17 19:46:00,
2013-07-17 15:51:00,91.6,76.2,30.06,South,180,5.8,5.8,61,0.00,SCT,,0.00,WeatherDisplay:10.37,2013-07-17 19:51:00,
2013-07-17 15:56:00,92.3,76.9,30.06,SE,135,2.3,2.3,61,0.00,SCT,,0.00,WeatherDisplay:10.37,2013-07-17 19:56:00,
2013-07-17 16:01:00,92.8,76.9,30.06,WSW,248,3.5,3.5,60,0.00,SCT,,0.00,WeatherDisplay:10.37,2013-07-17 20:01:00,
2013-07-17 16:06:00,91.4,77.5,30.06,SW,225,2.3,2.3,64,0.00,SCT,,0.00,WeatherDisplay:10.37,2013-07-17 20:06:00,
2013-07-17 16:11:00,88.0,76.5,30.07,East,90,8.8,8.8,69,0.00,SCT,,0.00,WeatherDisplay:10.37,2013-07-17 20:11:00,
2013-07-17 16:16:00,82.0,72.5,30.07,ESE,112,13.8,13.8,73,0.00,SCT,,0.00,WeatherDisplay:10.37,2013-07-17 20:16:00,
2013-07-17 16:21:00,81.9,73.2,30.07,WSW,248,6.9,6.9,75,0.00,SCT,,0.00,WeatherDisplay:10.37,2013-07-17 20:21:00,
2013-07-17 16:26:00,75.9,71.4,30.08,WSW,248,17.3,17.3,86,0.05,RA,,0.05,WeatherDisplay:10.37,2013-07-17 20:26:00,
2013-07-17 16:31:00,74.1,71.3,30.08,WSW,248,9.4,9.4,91,0.16,RA,,0.17,WeatherDisplay:10.37,2013-07-17 20:31:00,
2013-07-17 16:36:00,74.1,71.9,30.09,SW,225,11.5,11.5,93,0.23,RA,,0.24,WeatherDisplay:10.37,2013-07-17 20:36:00,
2013-07-17 16:41:00,73.8,71.6,30.09,SW,225,9.2,9.2,93,0.28,RA,,0.28,WeatherDisplay:10.37,2013-07-17 20:41:00,
2013-07-17 16:46:00,73.2,71.1,30.08,SW,225,9.2,9.2,93,0.30,RA,,0.30,WeatherDisplay:10.37,2013-07-17 20:46:00,
2013-07-17 16:51:00,72.7,70.9,30.08,WSW,248,5.8,5.8,94,0.31,RA,,0.31,WeatherDisplay:10.37,2013-07-17 20:51:00,
2013-07-17 16:56:00,72.7,70.9,30.08,NW,315,2.3,2.3,94,0.31,RA,,0.31,WeatherDisplay:10.37,2013-07-17 20:56:00,
2013-07-17 17:01:00,72.9,71.1,30.06,SW,225,0.0,0.0,94,0.31,BKN,,0.31,WeatherDisplay:10.37,2013-07-17 21:01:00,
2013-07-17 17:06:00,72.5,70.4,30.06,WSW,248,4.6,4.6,93,0.32,RA,,0.32,WeatherDisplay:10.37,2013-07-17 21:06:00,
2013-07-17 17:11:00,72.5,70.7,30.05,WSW,248,4.6,4.6,94,0.32,RA,,0.32,WeatherDisplay:10.37,2013-07-17 21:11:00,
2013-07-17 17:16:00,72.9,71.4,30.05,ESE,112,4.2,4.2,95,0.32,BKN,,0.32,WeatherDisplay:10.37,2013-07-17 21:16:00,
2013-07-17 17:21:00,72.7,71.2,30.05,ENE,68,2.3,2.3,95,0.32,BKN,,0.32,WeatherDisplay:10.37,2013-07-17 21:21:00,
2013-07-17 17:26:00,72.5,71.0,30.03,West,270,0.0,0.0,95,0.27,BKN,,0.32,WeatherDisplay:10.37,2013-07-17 21:26:00,
2013-07-17 17:31:00,73.4,72.2,30.03,WSW,248,0.0,0.0,96,0.16,BKN,,0.32,WeatherDisplay:10.37,2013-07-17 21:31:00,
2013-07-17 17:36:00,73.4,72.2,30.03,SW,225,1.1,1.1,96,0.09,BKN,,0.32,WeatherDisplay:10.37,2013-07-17 21:36:00,
2013-07-17 17:41:00,72.9,71.7,30.03,West,270,3.7,3.7,96,0.04,BKN,,0.32,WeatherDisplay:10.37,2013-07-17 21:41:00,
2013-07-17 17:46:00,72.9,71.7,30.02,SW,225,2.3,2.3,96,0.02,BKN,,0.32,WeatherDisplay:10.37,2013-07-17 21:46:00,
2013-07-17 17:51:00,72.9,71.7,30.02,SE,135,4.6,4.6,96,0.01,BKN,,0.32,WeatherDisplay:10.37,2013-07-17 21:51:00,
2013-07-17 17:56:00,73.0,71.8,30.02,South,180,1.1,1.1,96,0.01,BKN,,0.32,WeatherDisplay:10.37,2013-07-17 21:56:00,
2013-07-17 18:01:00,73.0,71.8,30.02,WSW,248,3.5,3.7,96,0.01,BKN,,0.32,WeatherDisplay:10.37,2013-07-17 22:01:00,
2013-07-17 18:06:00,73.0,71.8,30.02,SW,225,2.3,2.3,96,0.00,BKN,,0.32,WeatherDisplay:10.37,2013-07-17 22:06:00,
2013-07-17 18:11:00,73.2,72.0,30.02,SW,225,3.5,3.7,96,0.00,BKN,,0.32,WeatherDisplay:10.37,2013-07-17 22:11:00,
2013-07-17 18:16:00,73.2,72.0,30.02,WSW,248,4.6,4.6,96,0.00,BKN,,0.32,WeatherDisplay:10.37,2013-07-17 22:16:00,
2013-07-17 18:21:00,73.0,71.8,30.02,South,180,1.1,1.1,96,0.00,BKN,,0.32,WeatherDisplay:10.37,2013-07-17 22:21:00,
2013-07-17 18:26:00,73.0,71.8,30.02,West,270,1.1,1.1,96,0.00,BKN,,0.32,WeatherDisplay:10.37,2013-07-17 22:26:00,
2013-07-17 18:31:00,73.2,72.0,30.02,ESE,112,3.5,3.5,96,0.00,CLR,,0.32,WeatherDisplay:10.37,2013-07-17 22:31:00,
2013-07-17 18:36:00,73.2,72.0,30.03,West,270,0.0,0.0,96,0.00,CLR,,0.32,WeatherDisplay:10.37,2013-07-17 22:36:00,
2013-07-17 18:41:00,73.6,72.7,30.03,WSW,248,3.5,3.6,97,0.00,CLR,,0.32,WeatherDisplay:10.37,2013-07-17 22:41:00,
2013-07-17 18:46:00,73.8,72.9,30.03,WSW,248,2.3,2.3,97,0.00,CLR,,0.32,WeatherDisplay:10.37,2013-07-17 22:46:00,
2013-07-17 18:51:00,73.9,73.0,30.03,ESE,112,0.0,0.0,97,0.00,CLR,,0.32,WeatherDisplay:10.37,2013-07-17 22:51:00,
2013-07-17 18:56:00,73.9,73.0,30.03,East,90,1.1,1.1,97,0.00,CLR,,0.32,WeatherDisplay:10.37,2013-07-17 22:56:00,
2013-07-17 19:01:00,74.1,72.9,30.03,ESE,112,2.3,2.3,96,0.00,CLR,,0.32,WeatherDisplay:10.37,2013-07-17 23:01:00,
2013-07-17 19:06:00,74.7,73.5,30.03,WSW,248,0.0,0.0,96,0.00,CLR,,0.32,WeatherDisplay:10.37,2013-07-17 23:06:00,
2013-07-17 19:11:00,75.4,74.5,30.03,WSW,248,0.0,0.0,97,0.00,CLR,,0.32,WeatherDisplay:10.37,2013-07-17 23:11:00,
2013-07-17 19:16:00,75.4,74.2,30.03,WSW,248,2.3,2.3,96,0.00,CLR,,0.32,WeatherDisplay:10.37,2013-07-17 23:16:00,
2013-07-17 19:21:00,75.2,74.0,30.03,NNW,338,2.2,2.2,96,0.00,CLR,,0.32,WeatherDisplay:10.37,2013-07-17 23:21:00,
2013-07-17 19:26:00,75.6,74.4,30.02,ESE,112,0.0,0.0,96,0.00,CLR,,0.32,WeatherDisplay:10.37,2013-07-17 23:26:00,
2013-07-17 19:31:00,75.9,74.7,30.02,WSW,248,2.3,2.3,96,0.00,CLR,,0.32,WeatherDisplay:10.37,2013-07-17 23:31:00,
2013-07-17 19:36:00,76.1,74.9,30.02,NE,45,3.5,3.5,96,0.00,CLR,,0.32,WeatherDisplay:10.37,2013-07-17 23:36:00,
2013-07-17 19:41:00,75.7,74.5,30.02,ESE,112,4.7,4.7,96,0.00,CLR,,0.32,WeatherDisplay:10.37,2013-07-17 23:41:00,
2013-07-17 19:46:00,75.4,74.2,30.03,ESE,112,4.6,4.6,96,0.00,CLR,,0.32,WeatherDisplay:10.37,2013-07-17 23:46:00,
2013-07-17 19:51:00,75.4,74.2,30.03,SE,135,1.1,1.1,96,0.00,CLR,,0.32,WeatherDisplay:10.37,2013-07-17 23:51:00,
2013-07-17 19:56:00,75.7,74.5,30.03,SSW,202,2.7,2.7,96,0.00,CLR,,0.32,WeatherDisplay:10.37,2013-07-17 23:56:00,
2013-07-17 20:01:00,75.7,74.5,30.02,SSW,202,2.3,2.3,96,0.00,CLR,,0.32,WeatherDisplay:10.37,2013-07-18 00:01:00,
2013-07-17 20:06:00,75.9,74.7,30.02,SSE,158,2.3,2.3,96,0.00,CLR,,0.32,WeatherDisplay:10.37,2013-07-18 00:06:00,
2013-07-17 20:11:00,75.7,74.2,30.02,ESE,112,0.0,0.0,95,0.00,CLR,,0.32,WeatherDisplay:10.37,2013-07-18 00:11:00,
2013-07-17 20:16:00,75.6,73.8,30.02,East,90,0.0,0.0,94,0.00,CLR,,0.32,WeatherDisplay:10.37,2013-07-18 00:16:00,
2013-07-17 20:21:00,75.7,73.8,30.02,ESE,112,0.0,0.0,94,0.00,CLR,,0.32,WeatherDisplay:10.37,2013-07-18 00:21:00,
2013-07-17 20:26:00,75.6,73.8,30.03,ESE,112,0.0,0.0,94,0.00,CLR,,0.32,WeatherDisplay:10.37,2013-07-18 00:26:00,
2013-07-17 20:31:00,75.6,73.8,30.03,ESE,112,0.0,0.0,94,0.00,CLR,,0.32,WeatherDisplay:10.37,2013-07-18 00:31:00,
2013-07-17 20:36:00,76.1,74.6,30.02,WSW,248,0.0,0.0,95,0.00,CLR,,0.32,WeatherDisplay:10.37,2013-07-18 00:36:00,
2013-07-17 20:41:00,76.1,74.2,30.02,WSW,248,0.0,0.0,94,0.00,CLR,,0.32,WeatherDisplay:10.37,2013-07-18 00:41:00,
2013-07-17 20:46:00,76.1,74.2,30.02,SW,225,0.0,0.0,94,0.00,CLR,,0.32,WeatherDisplay:10.37,2013-07-18 00:46:00,
2013-07-17 20:51:00,75.7,74.2,30.02,SW,225,0.0,0.0,95,0.00,CLR,,0.32,WeatherDisplay:10.37,2013-07-18 00:51:00,
2013-07-17 20:56:00,75.4,73.9,30.02,West,270,0.0,0.0,95,0.00,CLR,,0.32,WeatherDisplay:10.37,2013-07-18 00:56:00,
2013-07-17 21:01:00,75.2,73.7,30.03,WSW,248,0.0,0.0,95,0.00,CLR,,0.32,WeatherDisplay:10.37,2013-07-18 01:01:00,
2013-07-17 21:06:00,75.2,73.7,30.03,SE,135,0.0,0.0,95,0.00,CLR,,0.32,WeatherDisplay:10.37,2013-07-18 01:06:00,
2013-07-17 21:11:00,75.0,73.8,30.02,SW,225,0.0,0.0,96,0.00,CLR,,0.32,WeatherDisplay:10.37,2013-07-18 01:11:00,
2013-07-17 21:16:00,74.7,73.5,30.02,SW,225,0.0,0.0,96,0.00,CLR,,0.32,WeatherDisplay:10.37,2013-07-18 01:16:00,
2013-07-17 21:21:00,74.5,73.3,30.02,SW,225,0.0,0.0,96,0.00,CLR,,0.32,WeatherDisplay:10.37,2013-07-18 01:21:00,
2013-07-17 21:26:00,74.3,73.1,30.02,SW,225,0.0,0.0,96,0.00,CLR,,0.32,WeatherDisplay:10.37,2013-07-18 01:26:00,
2013-07-17 21:31:00,74.3,73.1,30.02,SSW,202,0.0,0.0,96,0.00,CLR,,0.32,WeatherDisplay:10.37,2013-07-18 01:31:00,
2013-07-17 21:36:00,73.9,72.7,30.03,SW,225,0.0,0.0,96,0.00,CLR,,0.32,WeatherDisplay:10.37,2013-07-18 01:36:00,
2013-07-17 21:41:00,73.8,72.6,30.03,WSW,248,0.0,0.0,96,0.00,CLR,,0.32,WeatherDisplay:10.37,2013-07-18 01:41:00,
2013-07-17 21:46:00,73.8,72.6,30.03,WSW,248,0.0,0.0,96,0.00,CLR,,0.32,WeatherDisplay:10.37,2013-07-18 01:46:00,
2013-07-17 21:51:00,73.6,72.4,30.03,WSW,248,0.0,0.0,96,0.00,CLR,,0.32,WeatherDisplay:10.37,2013-07-18 01:51:00,
2013-07-17 21:56:00,73.6,72.4,30.03,SW,225,0.0,0.0,96,0.00,CLR,,0.32,WeatherDisplay:10.37,2013-07-18 01:56:00,
2013-07-17 22:01:00,73.2,72.0,30.03,SW,225,0.0,0.0,96,0.00,CLR,,0.32,WeatherDisplay:10.37,2013-07-18 02:01:00,
2013-07-17 22:06:00,72.9,71.7,30.03,West,270,0.0,0.0,96,0.00,CLR,,0.32,WeatherDisplay:10.37,2013-07-18 02:06:00,
2013-07-17 22:11:00,72.7,71.5,30.03,East,90,0.0,0.0,96,0.00,CLR,,0.32,WeatherDisplay:10.37,2013-07-18 02:11:00,
2013-07-17 22:16:00,72.9,72.0,30.03,East,90,0.0,0.0,97,0.00,CLR,,0.32,WeatherDisplay:10.37,2013-07-18 02:16:00,
2013-07-17 22:21:00,72.9,72.0,30.03,WSW,248,0.0,0.0,97,0.00,CLR,,0.32,WeatherDisplay:10.37,2013-07-18 02:21:00,
2013-07-17 22:26:00,72.7,71.8,30.04,WSW,248,0.0,0.0,97,0.00,CLR,,0.32,WeatherDisplay:10.37,2013-07-18 02:26:00,
2013-07-17 22:31:00,72.7,71.8,30.04,SSE,158,0.0,0.0,97,0.00,CLR,,0.32,WeatherDisplay:10.37,2013-07-18 02:31:00,
2013-07-17 22:36:00,72.3,71.4,30.05,SW,225,0.0,0.0,97,0.00,CLR,,0.32,WeatherDisplay:10.37,2013-07-18 02:36:00,
2013-07-17 22:41:00,72.3,71.4,30.05,WSW,248,0.0,0.0,97,0.00,CLR,,0.32,WeatherDisplay:10.37,2013-07-18 02:41:00,
2013-07-17 22:46:00,72.1,71.2,30.04,WSW,248,0.0,0.0,97,0.00,CLR,,0.32,WeatherDisplay:10.37,2013-07-18 02:46:00,
2013-07-17 22:51:00,72.1,71.2,30.04,SW,225,0.0,0.0,97,0.00,CLR,,0.32,WeatherDisplay:10.37,2013-07-18 02:51:00,
2013-07-17 22:56:00,72.1,71.2,30.04,SSW,202,0.0,0.0,97,0.00,CLR,,0.32,WeatherDisplay:10.37,2013-07-18 02:56:00,
2013-07-17 23:01:00,72.0,71.1,30.05,WSW,248,0.0,0.0,97,0.00,CLR,,0.32,WeatherDisplay:10.37,2013-07-18 03:01:00,
2013-07-17 23:06:00,71.8,70.9,30.05,SSW,202,2.3,2.3,97,0.00,CLR,,0.32,WeatherDisplay:10.37,2013-07-18 03:06:00,
2013-07-17 23:11:00,71.8,70.9,30.05,WSW,248,0.0,0.0,97,0.00,CLR,,0.32,WeatherDisplay:10.37,2013-07-18 03:11:00,
2013-07-17 23:16:00,71.8,70.9,30.05,West,270,3.5,3.5,97,0.00,CLR,,0.32,WeatherDisplay:10.37,2013-07-18 03:16:00,
2013-07-17 23:21:00,71.8,70.9,30.05,SW,225,0.0,0.0,97,0.00,CLR,,0.32,WeatherDisplay:10.37,2013-07-18 03:21:00,
2013-07-17 23:26:00,71.8,70.9,30.05,SW,225,2.3,2.3,97,0.00,CLR,,0.32,WeatherDisplay:10.37,2013-07-18 03:26:00,
2013-07-17 23:31:00,71.8,70.9,30.05,WSW,248,2.3,2.3,97,0.00,CLR,,0.32,WeatherDisplay:10.37,2013-07-18 03:31:00,
2013-07-17 23:36:00,71.8,70.9,30.05,SW,225,0.0,0.0,97,0.00,CLR,,0.32,WeatherDisplay:10.37,2013-07-18 03:36:00,
2013-07-17 23:41:00,71.8,70.9,30.05,SSW,202,2.2,2.2,97,0.00,CLR,,0.32,WeatherDisplay:10.37,2013-07-18 03:41:00,
2013-07-17 23:46:00,71.8,70.9,30.05,SW,225,3.2,3.2,97,0.00,CLR,,0.32,WeatherDisplay:10.37,2013-07-18 03:46:00,
2013-07-17 23:51:00,120.9,99.9,30.05,WSW,248,2.7,2.7,97,0.00,CLR,,0.32,WeatherDisplay:10.37,2013-07-18 03:51:00,
2013-07-17 23:56:00,128.1,99.9,30.04,WSW,248,2.3,2.3,97,0.00,CLR,,0.32,WeatherDisplay:10.37,2013-07-18 03:56:00,